Time;durP1;ratioP1;P1;durP2;ratioP2;P2;SDS_P1;SDS_P2;PMS_P1;PMS_P2;Temp;Humidity;BMP_temperature;BMP_pressure;BME280_temperature;BME280_humidity;BME280_pressure;Samples;Min_cycle;Max_cycle;Signal;HPM_P1;HPM_P2
2023/06/30 00:00:50;;;;;;;9.45;8.65;;;14.00;99.90;;;;;;5269197;28;20444;-71
2023/06/30 00:03:22;;;;;;;9.98;9.07;;;13.90;99.90;;;;;;5269091;28;20060;-71
2023/06/30 00:05:53;;;;;;;9.75;8.95;;;14.10;99.90;;;;;;5268942;28;20032;-71
2023/06/30 00:08:24;;;;;;;9.75;8.85;;;14.10;99.90;;;;;;5268802;28;20368;-71
2023/06/30 00:10:54;;;;;;;10.60;9.60;;;14.00;99.90;;;;;;5268756;28;20107;-71
2023/06/30 00:13:25;;;;;;;11.35;10.55;;;13.90;99.90;;;;;;5268849;28;20031;-71
2023/06/30 00:15:56;;;;;;;11.38;10.45;;;14.00;99.90;;;;;;5268797;28;20028;-71
2023/06/30 00:18:28;;;;;;;11.65;10.68;;;14.00;99.90;;;;;;5267894;28;20527;-71
2023/06/30 00:20:59;;;;;;;10.60;9.80;;;13.80;99.90;;;;;;5268709;28;20078;-71
2023/06/30 00:23:30;;;;;;;10.57;9.65;;;13.90;99.90;;;;;;5268665;28;20036;-71
2023/06/30 00:26:01;;;;;;;10.48;9.48;;;13.90;99.90;;;;;;5268609;28;20035;-71
2023/06/30 00:28:32;;;;;;;10.90;10.10;;;13.70;99.90;;;;;;5268479;28;20035;-71
2023/06/30 00:31:03;;;;;;;10.88;10.13;;;13.90;99.90;;;;;;5268442;28;20020;-71
2023/06/30 00:33:33;;;;;;;8.70;8.10;;;13.90;99.90;;;;;;5268454;28;20024;-71
2023/06/30 00:36:04;;;;;;;9.60;8.77;;;14.00;99.90;;;;;;5268482;28;20034;-71
2023/06/30 00:38:35;;;;;;;9.88;9.18;;;14.00;99.90;;;;;;5268209;28;20028;-71
2023/06/30 00:41:06;;;;;;;11.45;10.57;;;14.10;99.90;;;;;;5268215;28;20035;-71
2023/06/30 00:43:40;;;;;;;9.88;9.13;;;14.00;99.90;;;;;;5268167;28;20028;-71
2023/06/30 00:46:13;;;;;;;11.35;10.45;;;13.90;99.90;;;;;;5268311;28;20024;-71
2023/06/30 00:48:45;;;;;;;10.52;9.70;;;13.60;99.90;;;;;;5267993;28;20040;-71
2023/06/30 00:51:16;;;;;;;9.90;9.20;;;13.80;99.90;;;;;;5268140;28;20024;-71
2023/06/30 00:53:47;;;;;;;9.32;8.63;;;13.80;99.90;;;;;;5268313;28;20425;-71
2023/06/30 00:56:18;;;;;;;8.35;7.75;;;13.90;99.90;;;;;;5268100;28;20436;-71
2023/06/30 00:58:49;;;;;;;11.07;10.15;;;13.60;99.90;;;;;;5268231;28;20098;-71
2023/06/30 01:01:31;;;;;;;10.68;9.88;;;13.70;99.90;;;;;;5268417;28;20026;-71
2023/06/30 01:04:32;;;;;;;11.20;9.93;;;13.80;99.90;;;;;;5268245;28;20032;-71
2023/06/30 01:07:14;;;;;;;10.38;9.57;;;13.70;99.90;;;;;;5268111;28;20020;-71
2023/06/30 01:09:53;;;;;;;10.57;9.77;;;13.70;99.90;;;;;;5267945;28;20460;-71
2023/06/30 01:12:25;;;;;;;9.90;9.20;;;13.70;99.90;;;;;;5268168;28;20027;-71
2023/06/30 01:14:56;;;;;;;10.10;9.40;;;13.60;99.90;;;;;;5267894;28;20141;-71
2023/06/30 01:17:29;;;;;;;10.07;9.38;;;13.60;99.90;;;;;;5267586;28;20035;-71
2023/06/30 01:20:04;;;;;;;10.80;10.00;;;13.80;99.90;;;;;;5267936;28;20036;-71
2023/06/30 01:22:50;;;;;;;9.80;8.90;;;13.90;99.90;;;;;;5267909;28;20468;-71
2023/06/30 01:25:25;;;;;;;8.73;8.02;;;13.60;99.90;;;;;;5267779;28;20538;-71
2023/06/30 01:27:57;;;;;;;9.10;8.25;;;13.70;99.90;;;;;;5267706;28;20536;-71
2023/06/30 01:30:29;;;;;;;9.93;9.23;;;13.80;99.90;;;;;;5270538;28;20032;-71
2023/06/30 01:33:00;;;;;;;8.00;7.35;;;13.50;99.90;;;;;;5272093;28;20460;-71
2023/06/30 01:35:31;;;;;;;8.15;7.55;;;13.60;99.90;;;;;;5271937;28;20035;-71
2023/06/30 01:38:02;;;;;;;9.60;8.70;;;13.50;99.90;;;;;;5271726;28;20024;-71
2023/06/30 01:40:33;;;;;;;9.32;8.65;;;13.40;99.90;;;;;;5271716;28;20101;-71
2023/06/30 01:43:04;;;;;;;11.40;10.40;;;13.50;99.90;;;;;;5270512;28;20032;-71
2023/06/30 01:45:35;;;;;;;10.90;10.20;;;13.60;99.90;;;;;;5271677;28;20027;-71
2023/06/30 01:48:06;;;;;;;11.10;10.32;;;13.60;99.90;;;;;;5271492;28;20059;-71
2023/06/30 01:50:38;;;;;;;9.95;8.90;;;13.70;99.90;;;;;;5271444;28;20016;-71
2023/06/30 01:53:09;;;;;;;9.60;8.85;;;13.80;99.90;;;;;;5271578;28;20032;-72
2023/06/30 01:55:47;;;;;;;9.13;8.45;;;13.90;99.90;;;;;;5271632;28;20414;-71
2023/06/30 01:58:18;;;;;;;8.70;8.02;;;13.80;99.90;;;;;;5271491;28;20028;-71
2023/06/30 02:00:49;;;;;;;8.05;7.35;;;13.70;99.90;;;;;;5271508;28;20028;-71
2023/06/30 02:03:20;;;;;;;8.43;7.82;;;13.40;99.90;;;;;;5271478;28;20087;-71
2023/06/30 02:05:51;;;;;;;8.75;8.10;;;13.30;99.90;;;;;;5271483;28;20111;-71
2023/06/30 02:08:21;;;;;;;8.98;8.32;;;13.30;99.90;;;;;;5271198;28;20369;-71
2023/06/30 02:10:52;;;;;;;8.60;7.90;;;13.60;99.90;;;;;;5271092;28;20031;-71
2023/06/30 02:13:23;;;;;;;7.95;7.35;;;13.70;99.90;;;;;;5271299;28;20031;-71
2023/06/30 02:15:54;;;;;;;7.75;7.05;;;13.60;99.90;;;;;;5271188;28;20028;-71
2023/06/30 02:18:25;;;;;;;8.95;8.20;;;13.50;99.90;;;;;;5270799;28;20059;-71
2023/06/30 02:20:56;;;;;;;7.30;6.70;;;13.50;99.90;;;;;;5271365;28;20127;-71
2023/06/30 02:23:28;;;;;;;7.82;7.13;;;13.40;99.90;;;;;;5271426;28;20052;-71
2023/06/30 02:25:59;;;;;;;7.85;7.25;;;13.60;99.90;;;;;;5271054;28;20112;-71
2023/06/30 02:28:30;;;;;;;8.23;7.38;;;13.60;99.90;;;;;;5270951;28;20550;-71
2023/06/30 02:31:01;;;;;;;8.70;7.30;;;13.50;99.90;;;;;;5271031;28;20028;-71
2023/06/30 02:33:32;;;;;;;7.43;6.72;;;13.50;99.90;;;;;;5270837;28;20024;-71
2023/06/30 02:36:03;;;;;;;7.95;7.35;;;13.30;99.90;;;;;;5270851;28;20035;-70
2023/06/30 02:38:34;;;;;;;7.90;7.05;;;13.50;99.90;;;;;;5270478;28;20478;-71
2023/06/30 02:41:05;;;;;;;9.38;8.70;;;13.40;99.90;;;;;;5270056;28;20073;-71
2023/06/30 02:43:35;;;;;;;10.27;9.48;;;13.20;99.90;;;;;;5270650;28;20024;-71
2023/06/30 02:46:06;;;;;;;13.40;12.48;;;13.30;99.90;;;;;;5270585;28;20039;-71
2023/06/30 02:48:37;;;;;;;12.90;12.00;;;13.40;99.90;;;;;;5270382;28;20040;-71
2023/06/30 02:51:08;;;;;;;12.93;12.00;;;13.50;99.90;;;;;;5270499;28;20484;-71
2023/06/30 02:53:38;;;;;;;14.82;13.88;;;13.30;99.90;;;;;;5270484;28;20016;-71
2023/06/30 02:56:09;;;;;;;12.18;11.32;;;13.40;99.90;;;;;;5270273;28;20036;-71
2023/06/30 02:58:40;;;;;;;10.82;10.13;;;13.50;99.90;;;;;;5270222;28;20016;-71
2023/06/30 03:01:11;;;;;;;9.82;9.07;;;13.60;99.90;;;;;;5270331;28;20145;-71
2023/06/30 03:03:42;;;;;;;9.50;8.60;;;13.60;99.90;;;;;;5270250;28;20012;-71
2023/06/30 03:06:13;;;;;;;8.30;7.30;;;13.30;99.90;;;;;;5270188;28;20020;-71
2023/06/30 03:08:44;;;;;;;8.18;7.47;;;13.40;99.90;;;;;;5269965;28;20040;-71
2023/06/30 03:11:15;;;;;;;8.85;8.25;;;13.40;99.90;;;;;;5269961;28;20074;-71
2023/06/30 03:13:46;;;;;;;7.55;6.95;;;13.40;99.90;;;;;;5270023;28;20543;-71
2023/06/30 03:16:17;;;;;;;8.85;8.07;;;13.30;99.90;;;;;;5269919;28;20020;-71
2023/06/30 03:18:47;;;;;;;10.02;9.32;;;13.40;99.90;;;;;;5269512;28;20064;-71
2023/06/30 03:21:18;;;;;;;9.55;8.57;;;13.50;99.90;;;;;;5269913;28;20468;-71
2023/06/30 03:23:49;;;;;;;10.07;9.18;;;13.60;99.90;;;;;;5269895;28;20032;-71
2023/06/30 03:26:20;;;;;;;10.07;9.32;;;13.70;99.90;;;;;;5269637;28;20020;-72
2023/06/30 03:28:51;;;;;;;9.35;8.55;;;13.90;99.90;;;;;;5269591;28;20035;-71
2023/06/30 03:31:23;;;;;;;8.32;7.70;;;14.00;99.90;;;;;;5269637;28;20379;-71
2023/06/30 03:33:53;;;;;;;8.85;6.90;;;14.00;99.90;;;;;;5269703;28;20047;-71
2023/06/30 03:36:24;;;;;;;9.15;6.57;;;14.10;99.90;;;;;;5269563;28;20459;-71
2023/06/30 03:38:55;;;;;;;7.63;6.95;;;14.10;99.90;;;;;;5269507;28;20059;-72
2023/06/30 03:41:26;;;;;;;8.73;7.93;;;14.30;99.90;;;;;;5269666;28;20032;-71
2023/06/30 03:43:57;;;;;;;8.02;7.13;;;14.40;99.90;;;;;;5269563;28;20034;-71
2023/06/30 03:46:28;;;;;;;8.77;7.55;;;14.60;99.90;;;;;;5269297;28;20057;-71
2023/06/30 03:48:59;;;;;;;7.03;6.43;;;14.70;99.90;;;;;;5269284;28;20544;-71
2023/06/30 03:51:30;;;;;;;6.70;6.13;;;14.60;99.90;;;;;;5268718;28;20028;-71
2023/06/30 03:54:00;;;;;;;6.93;6.43;;;14.60;99.90;;;;;;5268941;28;20478;-71
2023/06/30 03:56:31;;;;;;;7.63;7.03;;;14.70;99.90;;;;;;5269221;28;20031;-71
2023/06/30 03:59:02;;;;;;;12.05;6.63;;;14.80;99.90;;;;;;5268979;28;20024;-71
2023/06/30 04:01:33;;;;;;;6.80;6.20;;;14.90;99.90;;;;;;5269157;28;20035;-71
2023/06/30 04:04:04;;;;;;;6.43;5.93;;;15.00;99.90;;;;;;5268944;28;20016;-71
2023/06/30 04:06:36;;;;;;;6.07;5.57;;;15.10;99.90;;;;;;5268965;28;20337;-71
2023/06/30 04:09:07;;;;;;;6.00;5.60;;;15.10;99.90;;;;;;5268724;28;20040;-72
2023/06/30 04:11:38;;;;;;;7.05;6.43;;;15.20;99.90;;;;;;5268894;28;20016;-71
2023/06/30 04:14:08;;;;;;;6.82;6.22;;;15.30;99.90;;;;;;5268756;28;20024;-71
2023/06/30 04:16:39;;;;;;;7.32;6.63;;;15.50;99.90;;;;;;5268637;28;20111;-71
2023/06/30 04:19:10;;;;;;;7.22;6.40;;;15.40;99.90;;;;;;5268362;28;20048;-71
2023/06/30 04:21:41;;;;;;;6.80;6.20;;;15.40;99.90;;;;;;5268705;28;20497;-71
2023/06/30 04:24:12;;;;;;;6.88;5.80;;;15.60;99.90;;;;;;5268602;28;20410;-71
2023/06/30 04:26:43;;;;;;;7.07;6.47;;;15.70;99.90;;;;;;5267362;28;20032;-70
2023/06/30 04:29:14;;;;;;;6.85;6.35;;;15.80;99.90;;;;;;5268357;28;20043;-71
2023/06/30 04:31:45;;;;;;;6.63;6.13;;;16.00;99.90;;;;;;5268548;28;20028;-71
2023/06/30 04:34:16;;;;;;;8.52;7.93;;;16.10;99.90;;;;;;5268500;28;20055;-70
2023/06/30 04:36:49;;;;;;;9.45;8.75;;;16.30;99.90;;;;;;5268372;28;20020;-70
2023/06/30 04:39:20;;;;;;;8.43;7.85;;;16.20;99.90;;;;;;5268429;28;20022;-70
2023/06/30 04:41:50;;;;;;;8.45;7.85;;;16.30;99.90;;;;;;5268455;28;20024;-70
2023/06/30 04:44:21;;;;;;;8.30;7.70;;;16.40;99.90;;;;;;5268257;28;20092;-70
2023/06/30 04:46:52;;;;;;;8.85;8.25;;;16.50;99.90;;;;;;5268139;28;20105;-70
2023/06/30 04:49:24;;;;;;;9.57;8.88;;;16.70;99.90;;;;;;5268110;28;20035;-70
2023/06/30 04:51:54;;;;;;;8.45;7.75;;;16.70;99.90;;;;;;5268236;28;20118;-70
2023/06/30 04:54:25;;;;;;;9.50;8.38;;;16.80;99.90;;;;;;5268286;28;20063;-70
2023/06/30 04:56:56;;;;;;;9.88;9.18;;;16.90;99.90;;;;;;5268322;28;20118;-70
2023/06/30 04:59:27;;;;;;;8.40;7.88;;;17.10;99.90;;;;;;5268172;28;20439;-70
2023/06/30 05:02:00;;;;;;;8.88;8.20;;;17.40;99.90;;;;;;5268063;28;20352;-70
2023/06/30 05:04:31;;;;;;;9.52;8.73;;;17.60;99.90;;;;;;5268114;28;20720;-70
2023/06/30 05:07:02;;;;;;;8.70;7.95;;;17.70;99.90;;;;;;5268143;28;20036;-70
2023/06/30 05:09:33;;;;;;;8.43;7.72;;;17.80;99.90;;;;;;5267803;28;20086;-71
2023/06/30 05:12:05;;;;;;;8.38;7.70;;;18.10;99.90;;;;;;5268038;28;20016;-71
2023/06/30 05:14:36;;;;;;;10.40;9.73;;;18.20;99.90;;;;;;5267977;28;20028;-71
2023/06/30 05:17:06;;;;;;;11.38;10.52;;;18.40;99.90;;;;;;5268038;28;20518;-71
2023/06/30 05:19:38;;;;;;;11.20;10.35;;;18.70;99.90;;;;;;5267690;28;20093;-71
2023/06/30 05:22:08;;;;;;;10.48;9.48;;;18.80;99.90;;;;;;5267890;28;20029;-70
2023/06/30 05:24:39;;;;;;;9.15;8.32;;;19.00;99.90;;;;;;5267740;28;20027;-71
2023/06/30 05:27:10;;;;;;;8.80;8.15;;;19.10;99.90;;;;;;5267793;28;20051;-71
2023/06/30 05:29:41;;;;;;;9.38;8.57;;;19.30;99.90;;;;;;5267699;28;20522;-70
2023/06/30 05:32:12;;;;;;;6.45;6.05;;;19.40;99.90;;;;;;5267766;28;20031;-71
2023/06/30 05:34:43;;;;;;;6.60;6.03;;;19.50;99.90;;;;;;5267747;28;20024;-71
2023/06/30 05:37:14;;;;;;;8.30;6.18;;;19.60;99.90;;;;;;5267781;28;20032;-70
2023/06/30 05:39:44;;;;;;;6.10;5.60;;;19.90;99.90;;;;;;5267622;28;20028;-70
2023/06/30 05:42:15;;;;;;;5.82;5.32;;;20.10;99.90;;;;;;5267833;28;20032;-71
2023/06/30 05:44:46;;;;;;;6.10;5.18;;;20.30;99.90;;;;;;5267542;28;20066;-71
2023/06/30 05:47:17;;;;;;;6.38;5.90;;;20.50;99.90;;;;;;5267439;28;20036;-71
2023/06/30 05:49:48;;;;;;;8.45;6.25;;;20.80;99.90;;;;;;5267489;28;20039;-70
2023/06/30 05:52:21;;;;;;;6.82;6.30;;;20.90;99.90;;;;;;5267553;28;20024;-70
2023/06/30 05:54:52;;;;;;;6.22;5.70;;;21.00;99.90;;;;;;5267563;28;20056;-70
2023/06/30 05:57:23;;;;;;;8.02;7.28;;;21.20;99.90;;;;;;5267515;28;20039;-71
2023/06/30 05:59:53;;;;;;;11.48;10.48;;;21.40;99.90;;;;;;5267468;28;20039;-69
2023/06/30 06:02:24;;;;;;;11.27;10.00;;;21.50;99.90;;;;;;5267488;28;20122;-70
2023/06/30 06:04:55;;;;;;;8.18;7.47;;;21.70;99.90;;;;;;5267366;28;20067;-71
2023/06/30 06:07:26;;;;;;;6.97;6.47;;;21.80;99.90;;;;;;5267244;28;20028;-71
2023/06/30 06:09:57;;;;;;;6.20;5.72;;;21.90;99.90;;;;;;5267341;28;20028;-70
2023/06/30 06:12:27;;;;;;;6.40;5.90;;;22.00;99.90;;;;;;5267480;28;20016;-70
2023/06/30 06:14:58;;;;;;;8.70;5.65;;;22.20;99.90;;;;;;5267897;28;20032;-70
2023/06/30 06:17:29;;;;;;;5.72;5.32;;;22.30;99.90;;;;;;5271312;28;20028;-71
2023/06/30 06:20:00;;;;;;;5.63;5.13;;;22.40;99.90;;;;;;5271176;28;20106;-70
2023/06/30 06:22:30;;;;;;;5.40;5.00;;;22.50;99.90;;;;;;5271157;28;20024;-71
2023/06/30 06:25:01;;;;;;;9.20;5.10;;;22.60;99.90;;;;;;5271269;28;20055;-71
2023/06/30 06:27:35;;;;;;;4.93;4.47;;;22.80;99.90;;;;;;5270988;28;20085;-71
2023/06/30 06:30:07;;;;;;;4.75;4.45;;;23.00;99.90;;;;;;5270836;28;20043;-71
2023/06/30 06:32:37;;;;;;;4.65;4.22;;;23.00;99.90;;;;;;5270890;28;20115;-71
2023/06/30 06:35:08;;;;;;;5.47;4.95;;;23.00;99.90;;;;;;5270866;28;20110;-71
2023/06/30 06:37:39;;;;;;;5.47;4.97;;;23.20;99.90;;;;;;5270599;28;20031;-71
2023/06/30 06:40:10;;;;;;;5.32;4.95;;;23.30;99.90;;;;;;5270715;28;20032;-70
2023/06/30 06:42:41;;;;;;;5.57;5.15;;;23.50;99.90;;;;;;5270759;28;20069;-71
2023/06/30 07:00:07;;;;;;;5.63;5.13;;;23.50;99.90;;;;;;5341569;27;20389;-70
2023/06/30 07:02:38;;;;;;;8.23;5.75;;;24.20;99.90;;;;;;5329384;27;20037;-70
2023/06/30 07:05:09;;;;;;;7.13;4.70;;;24.30;99.90;;;;;;5328784;27;20027;-71
2023/06/30 07:07:40;;;;;;;5.57;5.05;;;24.30;99.90;;;;;;5328652;27;20031;-71
2023/06/30 07:10:11;;;;;;;5.47;5.03;;;24.30;99.90;;;;;;5327695;27;20462;-70
2023/06/30 07:12:42;;;;;;;4.72;4.32;;;24.50;99.90;;;;;;5328669;27;20015;-71
2023/06/30 07:15:13;;;;;;;7.43;4.57;;;24.50;99.90;;;;;;5326444;27;20084;-71
2023/06/30 07:17:44;;;;;;;5.18;4.80;;;24.60;99.90;;;;;;5328436;27;20022;-71
2023/06/30 07:20:14;;;;;;;5.65;5.15;;;24.60;99.90;;;;;;5328297;27;20027;-70
2023/06/30 07:22:46;;;;;;;5.03;4.55;;;24.50;99.90;;;;;;5328465;27;20058;-70
2023/06/30 07:25:17;;;;;;;5.43;5.05;;;24.70;99.90;;;;;;5328427;27;20023;-70
2023/06/30 07:27:53;;;;;;;5.70;5.20;;;24.80;99.90;;;;;;5328130;27;20100;-70
2023/06/30 07:30:25;;;;;;;8.23;5.32;;;24.80;99.90;;;;;;5315208;27;20393;-70
2023/06/30 07:32:56;;;;;;;5.28;4.82;;;24.80;99.90;;;;;;5306898;27;20531;-70
2023/06/30 07:35:27;;;;;;;6.57;5.28;;;25.00;99.90;;;;;;5327139;27;20031;-70
2023/06/30 07:37:58;;;;;;;7.90;5.03;;;25.10;99.90;;;;;;5328109;27;20477;-71
2023/06/30 07:40:29;;;;;;;5.00;4.60;;;25.20;99.90;;;;;;5328096;27;20023;-70
2023/06/30 07:43:00;;;;;;;5.05;4.30;;;25.30;99.90;;;;;;5327910;27;20022;-70
2023/06/30 07:45:31;;;;;;;5.75;4.25;;;25.40;99.90;;;;;;5327897;27;20603;-70
2023/06/30 07:48:02;;;;;;;4.60;4.20;;;25.40;99.90;;;;;;5327896;27;20051;-70
2023/06/30 07:50:32;;;;;;;4.85;4.35;;;25.40;99.90;;;;;;5327649;27;20076;-71
2023/06/30 07:53:08;;;;;;;11.32;4.40;;;25.50;99.90;;;;;;5327840;27;20031;-71
2023/06/30 07:55:39;;;;;;;4.22;3.92;;;25.70;99.90;;;;;;5327570;27;20354;-71
2023/06/30 07:58:09;;;;;;;4.65;4.32;;;25.60;99.90;;;;;;5327221;27;20043;-71
2023/06/30 08:00:40;;;;;;;6.40;5.07;;;25.60;99.90;;;;;;5315332;27;20084;-70
2023/06/30 08:03:11;;;;;;;4.38;3.97;;;25.60;99.90;;;;;;5313367;27;20466;-70
2023/06/30 08:05:42;;;;;;;4.80;4.32;;;25.60;99.90;;;;;;5313292;27;20613;-70
2023/06/30 08:08:13;;;;;;;5.55;4.82;;;25.70;99.90;;;;;;5313284;27;20047;-71
2023/06/30 08:10:44;;;;;;;6.78;5.50;;;25.90;99.90;;;;;;5313071;27;20020;-70
2023/06/30 08:13:15;;;;;;;5.18;4.68;;;26.00;99.90;;;;;;5313232;27;20481;-70
2023/06/30 08:15:46;;;;;;;7.30;5.43;;;26.10;99.90;;;;;;5313419;27;20411;-70
2023/06/30 08:18:17;;;;;;;6.60;6.10;;;26.20;99.90;;;;;;5313330;27;20027;-70
2023/06/30 08:20:48;;;;;;;7.65;7.03;;;26.30;99.90;;;;;;5312930;27;20034;-70
2023/06/30 08:23:18;;;;;;;5.60;4.53;;;26.50;99.90;;;;;;5304129;27;20031;-70
2023/06/30 08:25:49;;;;;;;4.95;4.60;;;26.00;99.90;;;;;;5298546;27;20028;-70
2023/06/30 08:28:21;;;;;;;6.55;6.05;;;26.40;99.90;;;;;;5303879;27;20118;-70
2023/06/30 08:30:53;;;;;;;8.07;5.68;;;26.50;99.90;;;;;;5306822;27;20050;-71
2023/06/30 08:33:28;;;;;;;5.80;5.30;;;26.60;99.90;;;;;;5295533;27;20045;-70
2023/06/30 08:36:01;;;;;;;7.10;6.60;;;26.60;99.90;;;;;;5312837;27;20015;-70
2023/06/30 08:38:32;;;;;;;5.90;5.38;;;26.80;99.90;;;;;;5291922;27;20036;-70
2023/06/30 08:41:03;;;;;;;5.13;3.70;;;26.80;99.90;;;;;;5306843;27;20080;-70
2023/06/30 08:43:38;;;;;;;4.03;3.70;;;26.80;99.90;;;;;;5312257;27;20023;-71
2023/06/30 08:46:10;;;;;;;4.05;3.75;;;26.80;99.90;;;;;;5306417;27;20047;-70
2023/06/30 08:51:22;;;;;;;5.68;3.78;;;26.60;99.90;;;;;;5507700;22;20053;-69
2023/06/30 08:53:54;;;;;;;6.15;5.55;;;26.80;99.90;;;;;;5227647;28;20021;-70
2023/06/30 08:56:27;;;;;;;9.23;5.03;;;26.80;99.90;;;;;;5210577;28;20074;-71
2023/06/30 08:58:58;;;;;;;4.88;4.30;;;27.10;99.90;;;;;;5228197;28;20041;-69
2023/06/30 09:01:28;;;;;;;4.97;4.40;;;27.10;99.90;;;;;;5228126;28;20464;-70
2023/06/30 09:04:00;;;;;;;4.35;3.80;;;27.00;99.90;;;;;;5228235;28;20021;-70
2023/06/30 09:06:37;;;;;;;4.13;3.83;;;27.20;99.90;;;;;;5228176;28;20384;-72
2023/06/30 09:09:11;;;;;;;4.88;3.95;;;27.40;99.90;;;;;;5227878;28;20084;-72
2023/06/30 09:11:42;;;;;;;4.38;3.92;;;27.30;99.90;;;;;;5226873;28;20028;-71
2023/06/30 09:14:14;;;;;;;5.60;4.22;;;27.30;99.90;;;;;;5228047;28;20070;-71
2023/06/30 09:16:45;;;;;;;4.43;4.03;;;26.90;99.90;;;;;;5210287;28;20057;-72
2023/06/30 09:19:16;;;;;;;6.28;5.13;;;27.30;99.90;;;;;;5209800;28;20064;-71
2023/06/30 09:21:48;;;;;;;5.13;4.35;;;27.60;99.90;;;;;;5227693;28;20059;-72
2023/06/30 09:24:19;;;;;;;4.57;4.28;;;27.50;99.90;;;;;;5227631;28;20476;-71
2023/06/30 09:26:50;;;;;;;4.75;4.35;;;27.70;99.90;;;;;;5227730;28;20032;-71
2023/06/30 09:29:22;;;;;;;4.60;4.22;;;27.80;99.90;;;;;;5227502;28;20173;-71
2023/06/30 09:32:01;;;;;;;4.80;4.20;;;27.70;99.90;;;;;;5227555;28;20056;-71
2023/06/30 09:34:32;;;;;;;4.75;4.35;;;27.60;99.90;;;;;;5227533;28;20112;-72
2023/06/30 09:37:03;;;;;;;3.92;3.50;;;27.80;99.90;;;;;;5227690;28;20104;-71
2023/06/30 09:39:33;;;;;;;5.28;4.30;;;27.90;99.90;;;;;;5227772;28;20376;-71
2023/06/30 09:42:15;;;;;;;5.97;4.70;;;27.80;99.90;;;;;;5227662;28;20461;-71
2023/06/30 09:44:46;;;;;;;5.47;4.20;;;27.60;99.90;;;;;;5227443;28;20021;-71
2023/06/30 09:47:17;;;;;;;4.43;4.13;;;27.70;99.90;;;;;;5209406;28;20029;-71
2023/06/30 09:49:48;;;;;;;4.75;4.25;;;27.90;99.90;;;;;;5226870;28;20517;-72
2023/06/30 09:52:26;;;;;;;5.38;4.25;;;28.10;99.90;;;;;;5227195;28;20029;-71
2023/06/30 09:54:57;;;;;;;5.78;5.25;;;27.40;99.90;;;;;;5227215;28;20033;-71
2023/06/30 09:57:28;;;;;;;5.20;4.90;;;27.90;99.90;;;;;;5227174;28;20377;-71
2023/06/30 10:00:01;;;;;;;7.18;5.60;;;28.20;99.90;;;;;;5226952;28;20111;-71
2023/06/30 10:02:32;;;;;;;5.88;4.30;;;28.30;99.90;;;;;;5226980;28;20021;-71
2023/06/30 10:05:03;;;;;;;5.68;5.18;;;28.30;99.90;;;;;;5227063;28;20025;-71
2023/06/30 10:07:35;;;;;;;7.00;5.32;;;28.40;99.90;;;;;;5226973;28;20032;-71
2023/06/30 10:10:09;;;;;;;5.60;5.20;;;28.50;99.90;;;;;;5226832;28;20031;-71
2023/06/30 10:12:44;;;;;;;6.57;6.07;;;28.50;99.90;;;;;;5226831;28;20086;-71
2023/06/30 10:15:15;;;;;;;8.05;5.60;;;28.70;99.90;;;;;;5226765;28;20380;-71
2023/06/30 10:17:47;;;;;;;5.78;5.25;;;28.50;99.90;;;;;;5226629;28;20029;-71
2023/06/30 10:20:19;;;;;;;9.60;6.63;;;28.60;99.90;;;;;;5226509;28;20040;-71
2023/06/30 10:22:51;;;;;;;6.55;5.63;;;28.70;99.90;;;;;;5226519;28;20104;-71
2023/06/30 10:25:28;;;;;;;5.43;5.03;;;28.70;99.90;;;;;;5226645;28;20063;-71
2023/06/30 10:27:59;;;;;;;8.65;5.72;;;28.70;99.90;;;;;;5226601;28;20021;-70
2023/06/30 10:30:30;;;;;;;5.55;5.15;;;28.70;99.90;;;;;;5226540;28;20107;-71
2023/06/30 10:33:01;;;;;;;6.82;6.07;;;28.90;99.90;;;;;;5226505;28;20021;-71
2023/06/30 10:35:34;;;;;;;5.90;5.57;;;28.60;99.90;;;;;;5226518;28;20056;-72
2023/06/30 10:38:05;;;;;;;9.60;8.80;;;28.80;99.90;;;;;;5226406;28;20048;-71
2023/06/30 10:40:36;;;;;;;7.35;6.75;;;28.80;99.90;;;;;;5226394;28;20021;-71
2023/06/30 10:43:07;;;;;;;13.07;11.68;;;28.80;99.90;;;;;;5226490;28;20028;-71
2023/06/30 10:46:05;;;;;;;10.90;9.80;;;28.80;99.90;;;;;;5226331;28;20036;-71
2023/06/30 10:48:38;;;;;;;7.10;6.63;;;28.90;99.90;;;;;;5221996;28;20036;-71
2023/06/30 10:51:11;;;;;;;6.75;6.25;;;28.70;99.90;;;;;;5225970;28;20057;-71
2023/06/30 10:53:44;;;;;;;11.93;10.65;;;28.80;99.90;;;;;;5226377;28;20024;-72
2023/06/30 10:56:15;;;;;;;9.93;9.00;;;28.90;99.90;;;;;;5226355;28;20094;-71
2023/06/30 10:58:46;;;;;;;7.22;5.68;;;29.00;99.90;;;;;;5226381;28;20025;-71
2023/06/30 11:01:18;;;;;;;7.60;5.53;;;29.00;99.90;;;;;;5226414;28;20082;-71
2023/06/30 11:03:58;;;;;;;5.43;5.00;;;29.00;99.90;;;;;;5226347;28;20009;-72
2023/06/30 11:06:29;;;;;;;4.75;4.38;;;29.10;99.90;;;;;;5226437;28;20021;-71
2023/06/30 11:09:01;;;;;;;5.80;4.47;;;29.00;99.90;;;;;;5226202;28;20032;-71
2023/06/30 11:11:51;;;;;;;4.80;4.13;;;28.50;99.90;;;;;;5226182;28;20028;-71
2023/06/30 11:14:34;;;;;;;4.50;4.20;;;29.00;99.90;;;;;;5226220;28;20029;-72
2023/06/30 11:17:08;;;;;;;8.07;4.18;;;28.90;99.90;;;;;;5226048;28;20013;-71
2023/06/30 11:19:39;;;;;;;6.00;4.97;;;28.90;99.90;;;;;;5225887;28;20060;-71
2023/06/30 11:22:32;;;;;;;4.45;4.10;;;29.00;99.90;;;;;;5226142;28;20507;-71
2023/06/30 11:25:13;;;;;;;5.38;4.97;;;28.80;99.90;;;;;;5226177;28;20029;-72
2023/06/30 11:27:46;;;;;;;5.10;4.78;;;29.00;99.90;;;;;;5226009;28;20037;-71
2023/06/30 11:30:18;;;;;;;5.72;5.22;;;29.10;99.90;;;;;;5225975;28;20342;-71
2023/06/30 11:32:57;;;;;;;5.05;4.63;;;29.00;99.90;;;;;;5226084;28;20028;-71
2023/06/30 11:35:31;;;;;;;6.20;5.03;;;29.10;99.90;;;;;;5210327;28;20040;-71
2023/06/30 11:38:02;;;;;;;5.65;5.15;;;29.20;99.90;;;;;;5211889;28;20693;-71
2023/06/30 11:40:33;;;;;;;8.82;5.13;;;29.20;99.90;;;;;;5229701;28;20172;-71
2023/06/30 11:43:05;;;;;;;6.40;6.00;;;29.20;99.90;;;;;;5229726;28;20048;-71
2023/06/30 11:45:36;;;;;;;5.53;5.03;;;29.20;99.90;;;;;;5229515;28;20025;-71
2023/06/30 11:48:07;;;;;;;5.47;4.95;;;29.40;99.90;;;;;;5229509;28;20052;-71
2023/06/30 11:50:37;;;;;;;16.85;10.93;;;29.40;99.90;;;;;;5229156;28;20057;-71
2023/06/30 11:53:09;;;;;;;7.75;6.80;;;29.50;99.90;;;;;;5211642;28;20029;-71
2023/06/30 11:55:44;;;;;;;7.47;6.78;;;29.50;99.90;;;;;;5229480;28;20052;-71
2023/06/30 11:58:19;;;;;;;5.90;5.47;;;28.90;99.90;;;;;;5229299;28;20055;-71
2023/06/30 12:00:50;;;;;;;7.00;5.75;;;29.20;99.90;;;;;;5229298;28;20018;-71
2023/06/30 12:03:21;;;;;;;5.50;5.00;;;29.20;99.90;;;;;;5211389;28;20036;-71
2023/06/30 12:05:56;;;;;;;5.05;4.50;;;29.30;99.90;;;;;;5211376;28;20025;-71
2023/06/30 12:08:27;;;;;;;5.97;5.47;;;29.30;99.90;;;;;;5229033;28;20384;-71
2023/06/30 12:10:57;;;;;;;6.65;5.90;;;29.30;99.90;;;;;;5229161;28;20029;-71
2023/06/30 12:13:28;;;;;;;6.18;5.63;;;29.10;99.90;;;;;;5229026;28;20075;-71
2023/06/30 12:16:02;;;;;;;7.00;6.25;;;29.20;99.90;;;;;;5229206;28;20086;-71
2023/06/30 12:18:36;;;;;;;7.32;6.40;;;29.20;99.90;;;;;;5229212;28;20048;-72
2023/06/30 12:21:12;;;;;;;6.65;6.13;;;29.30;99.90;;;;;;5229151;28;20388;-70
2023/06/30 12:23:45;;;;;;;5.85;5.45;;;29.50;99.90;;;;;;5229058;28;20064;-71
2023/06/30 12:26:16;;;;;;;5.93;5.47;;;29.20;99.90;;;;;;5228933;28;20560;-70
2023/06/30 12:28:48;;;;;;;6.78;6.25;;;29.20;99.90;;;;;;5228735;28;20041;-71
2023/06/30 12:31:23;;;;;;;7.45;6.95;;;29.20;99.90;;;;;;5228751;28;20065;-71
2023/06/30 12:33:54;;;;;;;7.25;6.10;;;29.30;99.90;;;;;;5228857;28;20079;-71
2023/06/30 12:36:29;;;;;;;6.03;5.25;;;29.40;99.90;;;;;;5228757;28;20424;-71
2023/06/30 12:39:00;;;;;;;5.35;4.95;;;29.20;98.00;;;;;;5228781;28;20059;-70
2023/06/30 12:41:31;;;;;;;7.05;4.82;;;29.40;99.90;;;;;;5228530;28;20021;-71
2023/06/30 12:44:03;;;;;;;5.47;5.15;;;29.20;99.90;;;;;;5228583;28;20106;-71
2023/06/30 12:46:34;;;;;;;6.60;5.22;;;29.20;99.90;;;;;;5228327;28;20473;-71
2023/06/30 12:49:05;;;;;;;5.55;5.15;;;29.20;99.90;;;;;;5228378;28;20033;-71
2023/06/30 12:51:38;;;;;;;4.90;4.57;;;29.30;99.90;;;;;;5228125;28;20099;-71
2023/06/30 12:54:09;;;;;;;5.72;5.32;;;29.40;99.90;;;;;;5210276;28;20025;-70
2023/06/30 12:56:40;;;;;;;8.43;5.43;;;29.40;99.90;;;;;;5228071;28;20027;-71
2023/06/30 12:59:11;;;;;;;5.15;4.72;;;29.30;99.90;;;;;;5228069;28;20514;-71
2023/06/30 13:01:42;;;;;;;7.28;5.78;;;29.30;99.90;;;;;;5228042;28;20036;-71
2023/06/30 13:04:13;;;;;;;4.72;4.25;;;29.40;99.90;;;;;;5228029;28;20025;-71
2023/06/30 13:06:43;;;;;;;4.47;4.15;;;29.30;99.90;;;;;;5228352;28;20029;-71
2023/06/30 13:09:14;;;;;;;5.55;5.07;;;28.70;99.90;;;;;;5227918;28;20553;-71
2023/06/30 13:11:45;;;;;;;7.45;7.00;;;29.10;99.90;;;;;;5227923;28;20480;-71
2023/06/30 13:14:16;;;;;;;5.65;5.18;;;29.10;99.90;;;;;;5227948;28;20050;-71
2023/06/30 13:16:47;;;;;;;5.28;4.97;;;29.10;99.90;;;;;;5227773;28;20036;-71
2023/06/30 13:19:18;;;;;;;5.68;5.13;;;29.20;99.90;;;;;;5227766;28;20025;-72
2023/06/30 13:21:49;;;;;;;5.50;5.10;;;29.20;99.90;;;;;;5227986;28;20423;-71
2023/06/30 13:24:20;;;;;;;5.47;5.07;;;29.00;99.90;;;;;;5228064;28;20021;-71
2023/06/30 13:26:51;;;;;;;4.72;4.30;;;29.20;99.90;;;;;;5228081;28;20070;-71